KARA/ARA METAR and TAF weather

Enter ICAO airport designator
Station Type Date Time Source
KARA METAR 2018/12/10 23:53 UTC NOAA

KARA 102353Z 30005KT 10SM CLR 08/02 A3033 RMK AO2 SLP269 T00780017 10128 20078 51016


Station Type Date Time Source
KARA Decoded METAR 2018/12/10 23:53 UTC NOAA

NEW IBERIA ACADIANA REGIONAL, LA, United States (KARA) 30-02N 091-53W 18M
Dec 10, 2018 - 06:53 PM EST / 2018.12.10 2353 UTC
Wind: from the WNW (300 degrees) at 6 MPH (5 KT):0
Visibility: 10 mile(s):0
Sky conditions: clear
Temperature: 46.0 F (7.8 C)
Dew Point: 35.1 F (1.7 C)
Relative Humidity: 65%
Pressure (altimeter): 30.33 in. Hg (1027 hPa)
Pressure tendency: 0.05 inches (1.6 hPa) higher than three hours ago
ob: KARA 102353Z 30005KT 10SM CLR 08/02 A3033 RMK AO2 SLP269 T00780017 10128 20078 51016
cycle: 0

Station Type Date Time Source
KARA TAF 2018/12/10 18:27 UTC NOAA

TAF KARA 101722Z 1018/1118 34008KT P6SM SKC
FM110100 VRB03KT P6SM SKC
FM111500 07004KT P6SM SKC


Example: see airport list